sensor_id;sensor_type;location;lat;lon;timestamp;temperature;humidity
42245;DHT22;27912;51.828;5.688;2023-04-12T00:00:39;9.40;99.90
42245;DHT22;27912;51.828;5.688;2023-04-12T00:03:05;9.40;99.90
42245;DHT22;27912;51.828;5.688;2023-04-12T00:05:32;9.40;99.90
42245;DHT22;27912;51.828;5.688;2023-04-12T00:07:58;9.30;99.90
42245;DHT22;27912;51.828;5.688;2023-04-12T00:10:26;9.30;99.90
42245;DHT22;27912;51.828;5.688;2023-04-12T00:12:52;9.30;99.90
42245;DHT22;27912;51.828;5.688;2023-04-12T00:15:17;9.20;99.90
42245;DHT22;27912;51.828;5.688;2023-04-12T00:17:43;9.20;99.90
42245;DHT22;27912;51.828;5.688;2023-04-12T00:20:09;9.20;99.90
42245;DHT22;27912;51.828;5.688;2023-04-12T00:22:38;9.10;99.90
42245;DHT22;27912;51.828;5.688;2023-04-12T00:25:05;9.10;99.90
42245;DHT22;27912;51.828;5.688;2023-04-12T00:27:31;9.00;99.90
42245;DHT22;27912;51.828;5.688;2023-04-12T00:29:57;9.00;99.90
42245;DHT22;27912;51.828;5.688;2023-04-12T00:32:22;9.00;99.90
42245;DHT22;27912;51.828;5.688;2023-04-12T00:34:48;9.00;99.90
42245;DHT22;27912;51.828;5.688;2023-04-12T00:37:13;8.90;99.90
42245;DHT22;27912;51.828;5.688;2023-04-12T00:39:39;8.90;99.90
42245;DHT22;27912;51.828;5.688;2023-04-12T00:42:04;8.90;99.90
42245;DHT22;27912;51.828;5.688;2023-04-12T00:44:32;8.90;99.90
42245;DHT22;27912;51.828;5.688;2023-04-12T00:46:58;8.80;99.90
42245;DHT22;27912;51.828;5.688;2023-04-12T00:49:25;8.90;99.90
42245;DHT22;27912;51.828;5.688;2023-04-12T00:51:59;8.80;99.90
42245;DHT22;27912;51.828;5.688;2023-04-12T00:54:28;8.80;99.90
42245;DHT22;27912;51.828;5.688;2023-04-12T00:56:54;8.80;99.90
42245;DHT22;27912;51.828;5.688;2023-04-12T00:59:22;8.80;99.90
42245;DHT22;27912;51.828;5.688;2023-04-12T01:01:47;8.80;99.90
42245;DHT22;27912;51.828;5.688;2023-04-12T01:04:13;8.70;99.90
42245;DHT22;27912;51.828;5.688;2023-04-12T01:07:09;8.70;99.90
42245;DHT22;27912;51.828;5.688;2023-04-12T01:12:40;8.70;99.90
42245;DHT22;27912;51.828;5.688;2023-04-12T01:15:12;8.70;99.90
42245;DHT22;27912;51.828;5.688;2023-04-12T01:17:55;8.60;99.90
42245;DHT22;27912;51.828;5.688;2023-04-12T01:20:25;8.60;99.90
42245;DHT22;27912;51.828;5.688;2023-04-12T01:28:41;8.60;99.90
42245;DHT22;27912;51.828;5.688;2023-04-12T01:31:08;8.50;99.90
42245;DHT22;27912;51.828;5.688;2023-04-12T01:33:37;8.50;99.90
42245;DHT22;27912;51.828;5.688;2023-04-12T01:36:12;8.50;99.90
42245;DHT22;27912;51.828;5.688;2023-04-12T01:38:40;8.40;99.90
42245;DHT22;27912;51.828;5.688;2023-04-12T01:41:07;8.50;99.90
42245;DHT22;27912;51.828;5.688;2023-04-12T01:43:39;8.50;99.90
42245;DHT22;27912;51.828;5.688;2023-04-12T01:46:05;8.40;99.90
42245;DHT22;27912;51.828;5.688;2023-04-12T01:48:31;8.40;99.90
42245;DHT22;27912;51.828;5.688;2023-04-12T01:56:46;8.40;99.90
42245;DHT22;27912;51.828;5.688;2023-04-12T01:59:15;8.40;99.90
42245;DHT22;27912;51.828;5.688;2023-04-12T02:01:42;8.40;99.90
42245;DHT22;27912;51.828;5.688;2023-04-12T02:04:08;8.40;99.90
42245;DHT22;27912;51.828;5.688;2023-04-12T02:06:35;8.40;99.90
42245;DHT22;27912;51.828;5.688;2023-04-12T02:09:03;8.40;99.90
42245;DHT22;27912;51.828;5.688;2023-04-12T02:11:32;8.40;99.90
42245;DHT22;27912;51.828;5.688;2023-04-12T02:13:58;8.40;99.90
42245;DHT22;27912;51.828;5.688;2023-04-12T02:16:23;8.40;99.90
42245;DHT22;27912;51.828;5.688;2023-04-12T02:18:49;8.40;99.90
42245;DHT22;27912;51.828;5.688;2023-04-12T02:21:15;8.40;99.90
42245;DHT22;27912;51.828;5.688;2023-04-12T02:23:41;8.40;99.90
42245;DHT22;27912;51.828;5.688;2023-04-12T02:26:08;8.40;99.90
42245;DHT22;27912;51.828;5.688;2023-04-12T02:28:35;8.40;99.90
42245;DHT22;27912;51.828;5.688;2023-04-12T02:31:03;8.40;99.90
42245;DHT22;27912;51.828;5.688;2023-04-12T02:33:29;8.40;99.90
42245;DHT22;27912;51.828;5.688;2023-04-12T02:35:55;8.40;99.90
42245;DHT22;27912;51.828;5.688;2023-04-12T02:38:21;8.40;99.90
42245;DHT22;27912;51.828;5.688;2023-04-12T02:40:47;8.40;99.90
42245;DHT22;27912;51.828;5.688;2023-04-12T02:43:13;8.40;99.90
42245;DHT22;27912;51.828;5.688;2023-04-12T02:45:39;8.40;99.90
42245;DHT22;27912;51.828;5.688;2023-04-12T02:48:05;8.40;99.90
42245;DHT22;27912;51.828;5.688;2023-04-12T02:50:30;8.40;99.90
42245;DHT22;27912;51.828;5.688;2023-04-12T02:52:56;8.40;99.90
42245;DHT22;27912;51.828;5.688;2023-04-12T02:55:21;8.40;99.90
42245;DHT22;27912;51.828;5.688;2023-04-12T02:57:47;8.30;99.90
42245;DHT22;27912;51.828;5.688;2023-04-12T03:00:13;8.40;99.90
42245;DHT22;27912;51.828;5.688;2023-04-12T03:02:42;8.40;99.90
42245;DHT22;27912;51.828;5.688;2023-04-12T03:05:08;8.30;99.90
42245;DHT22;27912;51.828;5.688;2023-04-12T03:07:34;8.40;99.90
42245;DHT22;27912;51.828;5.688;2023-04-12T03:10:03;8.30;99.90
42245;DHT22;27912;51.828;5.688;2023-04-12T03:12:32;8.30;99.90
42245;DHT22;27912;51.828;5.688;2023-04-12T03:14:58;8.30;99.90
42245;DHT22;27912;51.828;5.688;2023-04-12T03:17:23;8.30;99.90
42245;DHT22;27912;51.828;5.688;2023-04-12T03:19:49;8.30;99.90
42245;DHT22;27912;51.828;5.688;2023-04-12T03:22:14;8.30;99.90
42245;DHT22;27912;51.828;5.688;2023-04-12T03:24:40;8.30;99.90
42245;DHT22;27912;51.828;5.688;2023-04-12T03:27:07;8.30;99.90
42245;DHT22;27912;51.828;5.688;2023-04-12T03:29:32;8.30;99.90
42245;DHT22;27912;51.828;5.688;2023-04-12T03:31:58;8.30;99.90
42245;DHT22;27912;51.828;5.688;2023-04-12T03:34:26;8.30;99.90
42245;DHT22;27912;51.828;5.688;2023-04-12T03:36:56;8.30;99.90
42245;DHT22;27912;51.828;5.688;2023-04-12T03:39:22;8.30;99.90
42245;DHT22;27912;51.828;5.688;2023-04-12T03:41:48;8.30;99.90
42245;DHT22;27912;51.828;5.688;2023-04-12T03:44:13;8.30;99.90
42245;DHT22;27912;51.828;5.688;2023-04-12T03:46:39;8.20;99.90
42245;DHT22;27912;51.828;5.688;2023-04-12T03:49:05;8.20;99.90
42245;DHT22;27912;51.828;5.688;2023-04-12T03:51:30;8.20;99.90
42245;DHT22;27912;51.828;5.688;2023-04-12T03:53:56;8.20;99.90
42245;DHT22;27912;51.828;5.688;2023-04-12T03:56:21;8.10;99.90
42245;DHT22;27912;51.828;5.688;2023-04-12T03:58:47;8.10;99.90
42245;DHT22;27912;51.828;5.688;2023-04-12T04:01:12;8.10;99.90
42245;DHT22;27912;51.828;5.688;2023-04-12T04:03:39;8.10;99.90
42245;DHT22;27912;51.828;5.688;2023-04-12T04:06:06;8.10;99.90
42245;DHT22;27912;51.828;5.688;2023-04-12T04:08:31;8.10;99.90
42245;DHT22;27912;51.828;5.688;2023-04-12T04:10:57;8.10;99.90
42245;DHT22;27912;51.828;5.688;2023-04-12T04:13:23;8.10;99.90
42245;DHT22;27912;51.828;5.688;2023-04-12T04:15:55;8.10;99.90
42245;DHT22;27912;51.828;5.688;2023-04-12T04:18:23;8.00;99.90
42245;DHT22;27912;51.828;5.688;2023-04-12T04:20:48;8.00;99.90
42245;DHT22;27912;51.828;5.688;2023-04-12T04:23:14;8.00;99.90
42245;DHT22;27912;51.828;5.688;2023-04-12T04:25:39;8.00;99.90
42245;DHT22;27912;51.828;5.688;2023-04-12T04:28:06;8.00;99.90
42245;DHT22;27912;51.828;5.688;2023-04-12T04:30:32;8.00;99.90
42245;DHT22;27912;51.828;5.688;2023-04-12T04:32:58;8.00;99.90
42245;DHT22;27912;51.828;5.688;2023-04-12T04:35:24;8.00;99.90
42245;DHT22;27912;51.828;5.688;2023-04-12T04:37:50;8.00;99.90
42245;DHT22;27912;51.828;5.688;2023-04-12T04:40:17;8.00;99.90
42245;DHT22;27912;51.828;5.688;2023-04-12T04:42:45;8.00;99.90
42245;DHT22;27912;51.828;5.688;2023-04-12T04:45:19;8.00;99.90
42245;DHT22;27912;51.828;5.688;2023-04-12T04:47:46;8.00;99.90
42245;DHT22;27912;51.828;5.688;2023-04-12T04:50:12;8.00;99.90
42245;DHT22;27912;51.828;5.688;2023-04-12T04:52:37;8.00;99.90
42245;DHT22;27912;51.828;5.688;2023-04-12T04:55:03;8.00;99.90
42245;DHT22;27912;51.828;5.688;2023-04-12T04:57:29;8.10;99.90
42245;DHT22;27912;51.828;5.688;2023-04-12T04:59:55;8.10;99.90
42245;DHT22;27912;51.828;5.688;2023-04-12T05:02:20;8.10;99.90
42245;DHT22;27912;51.828;5.688;2023-04-12T05:04:46;8.10;99.90
42245;DHT22;27912;51.828;5.688;2023-04-12T05:07:12;8.10;99.90
42245;DHT22;27912;51.828;5.688;2023-04-12T05:09:38;8.00;99.90
42245;DHT22;27912;51.828;5.688;2023-04-12T05:12:04;8.10;99.90
42245;DHT22;27912;51.828;5.688;2023-04-12T05:14:29;8.10;99.90
42245;DHT22;27912;51.828;5.688;2023-04-12T05:16:55;8.10;99.90
42245;DHT22;27912;51.828;5.688;2023-04-12T05:19:20;8.10;99.90
42245;DHT22;27912;51.828;5.688;2023-04-12T05:21:46;8.10;99.90
42245;DHT22;27912;51.828;5.688;2023-04-12T05:24:11;8.20;99.90
42245;DHT22;27912;51.828;5.688;2023-04-12T05:26:37;8.10;99.90
42245;DHT22;27912;51.828;5.688;2023-04-12T05:29:03;8.20;99.90
42245;DHT22;27912;51.828;5.688;2023-04-12T05:31:28;8.20;99.90
42245;DHT22;27912;51.828;5.688;2023-04-12T05:33:54;8.20;99.90
42245;DHT22;27912;51.828;5.688;2023-04-12T05:36:19;8.20;99.90
42245;DHT22;27912;51.828;5.688;2023-04-12T05:38:45;8.20;99.90
42245;DHT22;27912;51.828;5.688;2023-04-12T05:41:11;8.30;99.90
42245;DHT22;27912;51.828;5.688;2023-04-12T05:43:37;8.30;99.90
42245;DHT22;27912;51.828;5.688;2023-04-12T05:46:04;8.20;99.90
42245;DHT22;27912;51.828;5.688;2023-04-12T05:48:29;8.30;99.90
42245;DHT22;27912;51.828;5.688;2023-04-12T05:50:55;8.30;99.90
42245;DHT22;27912;51.828;5.688;2023-04-12T05:53:21;8.30;99.90
42245;DHT22;27912;51.828;5.688;2023-04-12T05:55:47;8.40;99.90
42245;DHT22;27912;51.828;5.688;2023-04-12T05:58:12;8.30;99.90
42245;DHT22;27912;51.828;5.688;2023-04-12T06:00:41;8.30;99.90
42245;DHT22;27912;51.828;5.688;2023-04-12T06:03:08;8.40;99.90
42245;DHT22;27912;51.828;5.688;2023-04-12T06:05:34;8.40;99.90
42245;DHT22;27912;51.828;5.688;2023-04-12T06:08:00;8.40;99.90
42245;DHT22;27912;51.828;5.688;2023-04-12T06:10:26;8.40;99.90
42245;DHT22;27912;51.828;5.688;2023-04-12T06:12:52;8.40;99.90
42245;DHT22;27912;51.828;5.688;2023-04-12T06:15:17;8.40;99.90
42245;DHT22;27912;51.828;5.688;2023-04-12T06:17:44;8.40;99.90
42245;DHT22;27912;51.828;5.688;2023-04-12T06:20:10;8.40;99.90
42245;DHT22;27912;51.828;5.688;2023-04-12T06:22:36;8.40;99.90
42245;DHT22;27912;51.828;5.688;2023-04-12T06:25:02;8.50;99.90
42245;DHT22;27912;51.828;5.688;2023-04-12T06:27:28;8.50;99.90
42245;DHT22;27912;51.828;5.688;2023-04-12T06:29:54;8.50;99.90
42245;DHT22;27912;51.828;5.688;2023-04-12T06:32:19;8.50;99.90
42245;DHT22;27912;51.828;5.688;2023-04-12T06:34:45;8.50;99.90
42245;DHT22;27912;51.828;5.688;2023-04-12T06:37:11;8.60;99.90
42245;DHT22;27912;51.828;5.688;2023-04-12T06:39:36;8.60;99.90
42245;DHT22;27912;51.828;5.688;2023-04-12T06:42:02;8.60;99.90
42245;DHT22;27912;51.828;5.688;2023-04-12T06:44:27;8.60;99.90
42245;DHT22;27912;51.828;5.688;2023-04-12T06:46:53;8.60;99.90
42245;DHT22;27912;51.828;5.688;2023-04-12T06:49:19;8.60;99.90
42245;DHT22;27912;51.828;5.688;2023-04-12T06:51:44;8.60;99.90
42245;DHT22;27912;51.828;5.688;2023-04-12T06:54:11;8.60;99.90
42245;DHT22;27912;51.828;5.688;2023-04-12T06:56:37;8.60;99.90
42245;DHT22;27912;51.828;5.688;2023-04-12T06:59:04;8.70;99.90
42245;DHT22;27912;51.828;5.688;2023-04-12T07:01:29;8.60;99.90
42245;DHT22;27912;51.828;5.688;2023-04-12T07:03:55;8.70;99.90
42245;DHT22;27912;51.828;5.688;2023-04-12T07:06:21;8.70;99.90
42245;DHT22;27912;51.828;5.688;2023-04-12T07:08:46;8.80;99.90
42245;DHT22;27912;51.828;5.688;2023-04-12T07:11:12;8.90;99.90
42245;DHT22;27912;51.828;5.688;2023-04-12T07:13:38;8.90;99.90
42245;DHT22;27912;51.828;5.688;2023-04-12T07:16:04;9.00;99.90
42245;DHT22;27912;51.828;5.688;2023-04-12T07:18:29;9.10;99.90
42245;DHT22;27912;51.828;5.688;2023-04-12T07:20:55;9.20;99.90
42245;DHT22;27912;51.828;5.688;2023-04-12T07:23:23;9.20;99.90
42245;DHT22;27912;51.828;5.688;2023-04-12T07:25:50;9.30;99.90
42245;DHT22;27912;51.828;5.688;2023-04-12T07:28:18;9.40;99.90
42245;DHT22;27912;51.828;5.688;2023-04-12T07:30:43;9.50;99.90
42245;DHT22;27912;51.828;5.688;2023-04-12T07:33:09;9.40;99.90
42245;DHT22;27912;51.828;5.688;2023-04-12T07:35:35;9.50;99.90
42245;DHT22;27912;51.828;5.688;2023-04-12T07:38:00;9.50;99.90
42245;DHT22;27912;51.828;5.688;2023-04-12T07:40:26;9.40;99.90
42245;DHT22;27912;51.828;5.688;2023-04-12T07:42:52;9.40;99.90
42245;DHT22;27912;51.828;5.688;2023-04-12T07:45:18;9.50;99.90
42245;DHT22;27912;51.828;5.688;2023-04-12T07:47:44;9.50;99.90
42245;DHT22;27912;51.828;5.688;2023-04-12T07:50:09;9.50;99.90
42245;DHT22;27912;51.828;5.688;2023-04-12T07:52:35;9.60;99.90
42245;DHT22;27912;51.828;5.688;2023-04-12T07:55:01;9.70;99.90
42245;DHT22;27912;51.828;5.688;2023-04-12T07:57:26;9.80;99.90
42245;DHT22;27912;51.828;5.688;2023-04-12T07:59:52;9.90;99.90
42245;DHT22;27912;51.828;5.688;2023-04-12T08:02:17;9.90;99.90
42245;DHT22;27912;51.828;5.688;2023-04-12T08:04:49;9.90;99.90
42245;DHT22;27912;51.828;5.688;2023-04-12T08:07:15;9.90;99.90
42245;DHT22;27912;51.828;5.688;2023-04-12T08:09:41;9.90;99.90
42245;DHT22;27912;51.828;5.688;2023-04-12T08:12:07;9.90;99.90
42245;DHT22;27912;51.828;5.688;2023-04-12T08:14:32;9.90;99.90
42245;DHT22;27912;51.828;5.688;2023-04-12T08:16:58;10.00;99.90
42245;DHT22;27912;51.828;5.688;2023-04-12T08:19:23;10.10;99.90
42245;DHT22;27912;51.828;5.688;2023-04-12T08:21:49;10.20;99.90
42245;DHT22;27912;51.828;5.688;2023-04-12T08:24:15;10.40;99.90
42245;DHT22;27912;51.828;5.688;2023-04-12T08:26:40;10.40;99.90
42245;DHT22;27912;51.828;5.688;2023-04-12T08:29:06;10.50;99.90
42245;DHT22;27912;51.828;5.688;2023-04-12T08:31:32;10.60;99.90
42245;DHT22;27912;51.828;5.688;2023-04-12T08:33:57;10.70;99.90
42245;DHT22;27912;51.828;5.688;2023-04-12T08:36:24;10.80;99.90
42245;DHT22;27912;51.828;5.688;2023-04-12T08:38:50;10.90;99.90
42245;DHT22;27912;51.828;5.688;2023-04-12T08:41:17;11.00;99.90
42245;DHT22;27912;51.828;5.688;2023-04-12T08:43:44;11.00;99.90
42245;DHT22;27912;51.828;5.688;2023-04-12T08:46:13;10.90;99.90
42245;DHT22;27912;51.828;5.688;2023-04-12T08:48:40;10.80;99.90
42245;DHT22;27912;51.828;5.688;2023-04-12T08:51:08;10.60;99.90
42245;DHT22;27912;51.828;5.688;2023-04-12T08:53:35;10.50;99.90
42245;DHT22;27912;51.828;5.688;2023-04-12T08:56:01;10.40;99.90
42245;DHT22;27912;51.828;5.688;2023-04-12T08:58:27;10.20;99.90
42245;DHT22;27912;51.828;5.688;2023-04-12T09:00:53;10.10;99.90
42245;DHT22;27912;51.828;5.688;2023-04-12T09:03:20;10.10;99.90
42245;DHT22;27912;51.828;5.688;2023-04-12T09:05:45;10.30;99.90
42245;DHT22;27912;51.828;5.688;2023-04-12T09:08:11;10.50;99.90
42245;DHT22;27912;51.828;5.688;2023-04-12T09:10:37;10.80;99.90
42245;DHT22;27912;51.828;5.688;2023-04-12T09:13:04;10.90;99.90
42245;DHT22;27912;51.828;5.688;2023-04-12T09:15:30;11.10;99.90
42245;DHT22;27912;51.828;5.688;2023-04-12T09:18:07;11.30;99.90
42245;DHT22;27912;51.828;5.688;2023-04-12T09:20:33;11.50;99.90
42245;DHT22;27912;51.828;5.688;2023-04-12T09:22:59;11.80;99.90
42245;DHT22;27912;51.828;5.688;2023-04-12T09:25:41;12.00;99.90
42245;DHT22;27912;51.828;5.688;2023-04-12T09:28:22;12.20;99.90
42245;DHT22;27912;51.828;5.688;2023-04-12T09:30:50;12.40;99.90
42245;DHT22;27912;51.828;5.688;2023-04-12T09:33:22;12.60;99.90
42245;DHT22;27912;51.828;5.688;2023-04-12T09:36:02;12.70;99.90
42245;DHT22;27912;51.828;5.688;2023-04-12T09:38:32;12.80;99.90
42245;DHT22;27912;51.828;5.688;2023-04-12T09:41:19;12.90;99.90
42245;DHT22;27912;51.828;5.688;2023-04-12T09:43:46;12.80;99.90
42245;DHT22;27912;51.828;5.688;2023-04-12T09:46:13;12.90;99.90
42245;DHT22;27912;51.828;5.688;2023-04-12T09:48:39;13.00;99.90
42245;DHT22;27912;51.828;5.688;2023-04-12T09:51:06;13.00;99.90
42245;DHT22;27912;51.828;5.688;2023-04-12T09:53:35;13.10;99.90
42245;DHT22;27912;51.828;5.688;2023-04-12T09:56:03;13.10;99.90
42245;DHT22;27912;51.828;5.688;2023-04-12T09:58:31;13.00;99.90
42245;DHT22;27912;51.828;5.688;2023-04-12T10:01:00;12.90;99.90
42245;DHT22;27912;51.828;5.688;2023-04-12T10:03:27;12.90;99.90
42245;DHT22;27912;51.828;5.688;2023-04-12T10:05:53;13.00;99.90
42245;DHT22;27912;51.828;5.688;2023-04-12T10:08:21;13.00;99.90
42245;DHT22;27912;51.828;5.688;2023-04-12T10:10:47;13.10;99.90
42245;DHT22;27912;51.828;5.688;2023-04-12T10:13:13;13.20;99.90
42245;DHT22;27912;51.828;5.688;2023-04-12T10:15:39;13.40;99.90
42245;DHT22;27912;51.828;5.688;2023-04-12T10:18:06;13.60;99.90
42245;DHT22;27912;51.828;5.688;2023-04-12T10:20:32;13.70;99.90
42245;DHT22;27912;51.828;5.688;2023-04-12T10:22:58;13.70;99.90
42245;DHT22;27912;51.828;5.688;2023-04-12T10:25:27;13.70;99.90
42245;DHT22;27912;51.828;5.688;2023-04-12T10:27:55;13.80;99.90
42245;DHT22;27912;51.828;5.688;2023-04-12T10:30:22;13.90;99.90
42245;DHT22;27912;51.828;5.688;2023-04-12T10:35:26;14.20;99.90
42245;DHT22;27912;51.828;5.688;2023-04-12T10:38:02;14.30;99.90
42245;DHT22;27912;51.828;5.688;2023-04-12T10:40:29;14.30;99.90
42245;DHT22;27912;51.828;5.688;2023-04-12T10:45:44;14.30;99.90
42245;DHT22;27912;51.828;5.688;2023-04-12T10:48:51;14.20;99.90
42245;DHT22;27912;51.828;5.688;2023-04-12T10:51:22;14.10;99.90
42245;DHT22;27912;51.828;5.688;2023-04-12T10:53:50;13.80;99.90
42245;DHT22;27912;51.828;5.688;2023-04-12T10:58:55;13.70;99.90
42245;DHT22;27912;51.828;5.688;2023-04-12T11:01:20;13.70;99.90
42245;DHT22;27912;51.828;5.688;2023-04-12T11:04:10;13.70;99.90
42245;DHT22;27912;51.828;5.688;2023-04-12T11:07:27;13.90;99.90
42245;DHT22;27912;51.828;5.688;2023-04-12T11:09:46;14.10;99.90
42245;DHT22;27912;51.828;5.688;2023-04-12T11:12:13;14.20;99.90
42245;DHT22;27912;51.828;5.688;2023-04-12T11:14:53;14.30;99.90
42245;DHT22;27912;51.828;5.688;2023-04-12T11:17:24;14.20;99.90
42245;DHT22;27912;51.828;5.688;2023-04-12T11:19:55;14.00;99.90
42245;DHT22;27912;51.828;5.688;2023-04-12T11:22:23;14.00;99.90
42245;DHT22;27912;51.828;5.688;2023-04-12T11:25:00;13.90;99.90
42245;DHT22;27912;51.828;5.688;2023-04-12T11:27:27;13.90;99.90
42245;DHT22;27912;51.828;5.688;2023-04-12T11:29:55;13.90;99.90
42245;DHT22;27912;51.828;5.688;2023-04-12T11:32:24;13.70;99.90
42245;DHT22;27912;51.828;5.688;2023-04-12T11:34:52;13.70;99.90
42245;DHT22;27912;51.828;5.688;2023-04-12T11:37:19;13.70;99.90
42245;DHT22;27912;51.828;5.688;2023-04-12T11:39:47;13.60;99.90
42245;DHT22;27912;51.828;5.688;2023-04-12T11:42:15;13.40;99.90
42245;DHT22;27912;51.828;5.688;2023-04-12T11:44:42;13.30;99.90
42245;DHT22;27912;51.828;5.688;2023-04-12T11:47:23;13.00;99.90
42245;DHT22;27912;51.828;5.688;2023-04-12T11:49:57;12.80;99.90
42245;DHT22;27912;51.828;5.688;2023-04-12T11:52:31;12.70;99.90
42245;DHT22;27912;51.828;5.688;2023-04-12T11:55:04;12.60;99.90
42245;DHT22;27912;51.828;5.688;2023-04-12T11:57:35;12.60;99.90
42245;DHT22;27912;51.828;5.688;2023-04-12T12:00:01;12.60;99.90
42245;DHT22;27912;51.828;5.688;2023-04-12T12:02:32;12.50;99.90
42245;DHT22;27912;51.828;5.688;2023-04-12T12:04:58;12.50;99.90
42245;DHT22;27912;51.828;5.688;2023-04-12T12:07:24;12.60;99.90
42245;DHT22;27912;51.828;5.688;2023-04-12T12:09:50;12.70;99.90
42245;DHT22;27912;51.828;5.688;2023-04-12T12:12:17;12.80;99.90
42245;DHT22;27912;51.828;5.688;2023-04-12T12:14:45;12.90;99.90
42245;DHT22;27912;51.828;5.688;2023-04-12T12:17:13;13.00;99.90
42245;DHT22;27912;51.828;5.688;2023-04-12T12:19:41;12.90;99.90
42245;DHT22;27912;51.828;5.688;2023-04-12T12:22:13;12.90;99.90
42245;DHT22;27912;51.828;5.688;2023-04-12T12:27:12;13.10;99.90
42245;DHT22;27912;51.828;5.688;2023-04-12T12:29:38;13.30;99.90
42245;DHT22;27912;51.828;5.688;2023-04-12T12:32:13;13.60;99.90
42245;DHT22;27912;51.828;5.688;2023-04-12T12:34:40;13.80;99.90
42245;DHT22;27912;51.828;5.688;2023-04-12T12:37:12;13.90;99.90
42245;DHT22;27912;51.828;5.688;2023-04-12T12:39:37;13.80;99.90
42245;DHT22;27912;51.828;5.688;2023-04-12T12:42:03;13.70;99.90
42245;DHT22;27912;51.828;5.688;2023-04-12T12:44:30;13.50;99.90
42245;DHT22;27912;51.828;5.688;2023-04-12T12:47:00;13.40;99.90
42245;DHT22;27912;51.828;5.688;2023-04-12T12:49:26;13.20;99.90
42245;DHT22;27912;51.828;5.688;2023-04-12T12:51:52;13.10;99.90
42245;DHT22;27912;51.828;5.688;2023-04-12T12:54:17;12.90;99.90
42245;DHT22;27912;51.828;5.688;2023-04-12T12:56:43;12.60;99.90
42245;DHT22;27912;51.828;5.688;2023-04-12T12:59:09;12.40;99.90
42245;DHT22;27912;51.828;5.688;2023-04-12T13:01:34;12.20;99.90
42245;DHT22;27912;51.828;5.688;2023-04-12T13:04:00;12.10;99.90
42245;DHT22;27912;51.828;5.688;2023-04-12T13:06:25;12.00;99.90
42245;DHT22;27912;51.828;5.688;2023-04-12T13:08:52;12.00;99.80
42245;DHT22;27912;51.828;5.688;2023-04-12T13:11:19;11.90;99.50
42245;DHT22;27912;51.828;5.688;2023-04-12T13:13:45;11.80;99.20
42245;DHT22;27912;51.828;5.688;2023-04-12T13:16:10;11.70;98.80
42245;DHT22;27912;51.828;5.688;2023-04-12T13:18:36;11.70;98.40
42245;DHT22;27912;51.828;5.688;2023-04-12T13:21:02;11.80;99.30
42245;DHT22;27912;51.828;5.688;2023-04-12T13:23:27;11.80;99.70
42245;DHT22;27912;51.828;5.688;2023-04-12T13:25:53;11.90;99.90
42245;DHT22;27912;51.828;5.688;2023-04-12T13:28:18;11.90;99.90
42245;DHT22;27912;51.828;5.688;2023-04-12T13:30:45;11.90;99.90
42245;DHT22;27912;51.828;5.688;2023-04-12T13:33:13;11.80;99.90
42245;DHT22;27912;51.828;5.688;2023-04-12T13:35:38;11.80;99.90
42245;DHT22;27912;51.828;5.688;2023-04-12T13:38:04;11.60;99.90
42245;DHT22;27912;51.828;5.688;2023-04-12T13:40:29;11.40;99.90
42245;DHT22;27912;51.828;5.688;2023-04-12T13:42:55;11.20;99.90
42245;DHT22;27912;51.828;5.688;2023-04-12T13:45:21;11.10;99.90
42245;DHT22;27912;51.828;5.688;2023-04-12T13:47:46;11.00;99.90
42245;DHT22;27912;51.828;5.688;2023-04-12T13:50:12;10.80;99.90
42245;DHT22;27912;51.828;5.688;2023-04-12T13:52:37;10.70;99.90
42245;DHT22;27912;51.828;5.688;2023-04-12T13:55:03;10.60;99.90
42245;DHT22;27912;51.828;5.688;2023-04-12T13:57:32;10.50;99.90
42245;DHT22;27912;51.828;5.688;2023-04-12T13:59:58;10.50;99.90
42245;DHT22;27912;51.828;5.688;2023-04-12T14:02:24;10.40;99.90
42245;DHT22;27912;51.828;5.688;2023-04-12T14:04:51;10.40;99.90
42245;DHT22;27912;51.828;5.688;2023-04-12T14:07:17;10.40;99.90
42245;DHT22;27912;51.828;5.688;2023-04-12T14:09:42;10.40;99.90
42245;DHT22;27912;51.828;5.688;2023-04-12T14:12:08;10.40;99.90
42245;DHT22;27912;51.828;5.688;2023-04-12T14:14:34;10.50;99.90
42245;DHT22;27912;51.828;5.688;2023-04-12T14:16:59;10.60;99.90
42245;DHT22;27912;51.828;5.688;2023-04-12T14:19:26;10.70;99.90
42245;DHT22;27912;51.828;5.688;2023-04-12T14:21:51;10.70;99.90
42245;DHT22;27912;51.828;5.688;2023-04-12T14:24:18;10.70;99.90
42245;DHT22;27912;51.828;5.688;2023-04-12T14:26:47;10.80;99.90
42245;DHT22;27912;51.828;5.688;2023-04-12T14:29:14;11.00;99.90
42245;DHT22;27912;51.828;5.688;2023-04-12T14:31:40;11.10;99.90
42245;DHT22;27912;51.828;5.688;2023-04-12T14:34:05;11.20;99.90
42245;DHT22;27912;51.828;5.688;2023-04-12T14:36:33;11.30;99.90
42245;DHT22;27912;51.828;5.688;2023-04-12T14:38:58;11.20;99.90
42245;DHT22;27912;51.828;5.688;2023-04-12T14:41:25;11.20;99.90
42245;DHT22;27912;51.828;5.688;2023-04-12T14:43:51;11.10;99.90
42245;DHT22;27912;51.828;5.688;2023-04-12T14:46:16;11.10;99.90
42245;DHT22;27912;51.828;5.688;2023-04-12T14:48:42;11.20;99.90
42245;DHT22;27912;51.828;5.688;2023-04-12T14:51:09;11.10;99.90
42245;DHT22;27912;51.828;5.688;2023-04-12T14:53:34;11.10;99.90
42245;DHT22;27912;51.828;5.688;2023-04-12T14:56:00;11.00;99.90
42245;DHT22;27912;51.828;5.688;2023-04-12T14:58:31;10.90;99.90
42245;DHT22;27912;51.828;5.688;2023-04-12T15:00:57;10.70;99.90
42245;DHT22;27912;51.828;5.688;2023-04-12T15:03:24;10.60;99.90
42245;DHT22;27912;51.828;5.688;2023-04-12T15:05:51;10.00;99.90
42245;DHT22;27912;51.828;5.688;2023-04-12T15:08:16;8.60;99.90
42245;DHT22;27912;51.828;5.688;2023-04-12T15:10:42;7.60;99.90
42245;DHT22;27912;51.828;5.688;2023-04-12T15:13:09;7.00;99.90
42245;DHT22;27912;51.828;5.688;2023-04-12T15:15:35;6.60;99.90
42245;DHT22;27912;51.828;5.688;2023-04-12T15:18:00;6.50;99.90
42245;DHT22;27912;51.828;5.688;2023-04-12T15:20:28;6.50;99.90
42245;DHT22;27912;51.828;5.688;2023-04-12T15:22:53;6.50;99.90
42245;DHT22;27912;51.828;5.688;2023-04-12T15:25:19;6.50;99.90
42245;DHT22;27912;51.828;5.688;2023-04-12T15:27:46;6.50;99.90
42245;DHT22;27912;51.828;5.688;2023-04-12T15:30:12;6.60;99.90
42245;DHT22;27912;51.828;5.688;2023-04-12T15:32:40;6.70;99.90
42245;DHT22;27912;51.828;5.688;2023-04-12T15:35:06;6.80;99.90
42245;DHT22;27912;51.828;5.688;2023-04-12T15:37:32;6.90;99.90
42245;DHT22;27912;51.828;5.688;2023-04-12T15:39:59;7.00;99.90
42245;DHT22;27912;51.828;5.688;2023-04-12T15:42:26;7.00;99.90
42245;DHT22;27912;51.828;5.688;2023-04-12T15:44:51;7.10;99.90
42245;DHT22;27912;51.828;5.688;2023-04-12T15:47:17;7.10;99.90
42245;DHT22;27912;51.828;5.688;2023-04-12T15:49:42;7.20;99.90
42245;DHT22;27912;51.828;5.688;2023-04-12T15:52:08;7.20;99.90
42245;DHT22;27912;51.828;5.688;2023-04-12T15:54:33;7.30;99.90
42245;DHT22;27912;51.828;5.688;2023-04-12T15:56:59;7.30;99.90
42245;DHT22;27912;51.828;5.688;2023-04-12T15:59:33;7.40;99.90
42245;DHT22;27912;51.828;5.688;2023-04-12T16:01:59;7.40;99.90
42245;DHT22;27912;51.828;5.688;2023-04-12T16:04:25;7.50;99.90